Weather at Turkey Bluff Airport

Public forecast

Using degrees Fahrenheit for public forecast. Weather courtesy of forecast.io.

Closest aviation weather report (METAR) to Turkey Bluff Airport

Report is more than 6 hours old.

Closest report is Viroqua Municipal Airport, 15.1 nm (27.9 km) NE. Retrieved 2021/06/17 21:35 UTC (2 days ago):

KY51 172135Z AUTO 17007KT 10SM OVC110 29/19 A2982 RMK AO1 T02930186

Closest aviation forecast (TAF) to Turkey Bluff Airport

Closest forecast is La Crosse Municipal Airport, 31.0 nm (57.5 km) NNW. Retrieved 2021/06/20 06:22 UTC (3 hours ago):

TAF KLSE 200520Z 2006/2106 VRB04KT P6SM SCT250 FM201400 14005KT P6SM BKN050 FM201800 19010G20KT P6SM OVC035 FM202100 21010KT 6SM -TSRA BKN020CB FM210200 27010G23KT P6SM BKN020